• Join FlightAware (Why Join?)
  • Login
  • US Flag 
12:26AM EDT


 

Airport Tracker/Info


-or-


 

Live Flight TrackerFlight Track Log ✈ SWA3697 ✈ 07-Jul-2013 ✈ KSJC - KLAX

Flight Track Log - Related Links

Times and Time Zones

All times are in EDT time to prevent confusion due to time zone crossing. See the SWA3697 flight status page for this flight to view local times or setup timezone preferences in your user account.

Time Position Orientation Groundspeed Altitude Reporting Facility
EDT Latitude Longitude Course Direction KTS MPH feet Rate Location/Type
06:34PM 37.4000 -121.9667 15° North 194 223 1,700  Level Northern Cal TRACON
06:35PM 37.4500 -121.9500 15° North 270 311 3,900 1,620 Climbing Northern Cal TRACON
06:36PM 37.4167 -121.8833 122° Southeast 233 268 5,000 1,560 Climbing Northern Cal TRACON
06:37PM 37.3667 -121.8333 142° Southeast 231 266 7,100 1,920 Climbing Northern Cal TRACON
06:38PM 37.3281 -121.7856 135° Southeast 233 268 8,600 1,800 Climbing Oakland Center
06:39PM 37.2689 -121.7189 138° Southeast 276 318 10,600 1,860 Climbing Oakland Center
06:40PM 37.2014 -121.6422 138° Southeast 319 367 12,500 2,040 Climbing Oakland Center
06:41PM 37.1272 -121.5569 137° Southeast 354 407 14,900 2,280 Climbing Oakland Center
06:42PM 37.0464 -121.4678 139° Southeast 369 425 17,200 2,220 Climbing Oakland Center
06:43PM 36.9650 -121.3811 140° Southeast 383 441 19,500 2,160 Climbing Oakland Center
06:44PM 36.8819 -121.2914 139° Southeast 392 451 21,700 2,040 Climbing Oakland Center
06:45PM 36.8011 -121.2014 138° Southeast 398 458 23,700 1,740 Climbing Oakland Center
06:46PM 36.6967 -121.0897 139° Southeast 409 471 25,300 1,560 Climbing Oakland Center
06:47PM 36.6053 -120.9906 139° Southeast 427 491 26,900 1,380 Climbing Oakland Center
06:48PM 36.5128 -120.8894 139° Southeast 438 504 28,200 1,380 Climbing Oakland Center
06:49PM 36.4167 -120.7883 140° Southeast 449 517 29,800 1,500 Climbing Oakland Center
06:50PM 36.3208 -120.6853 139° Southeast 455 524 31,300 1,620 Climbing Oakland Center
06:51PM 36.2283 -120.5844 139° Southeast 446 513 33,200 1,560 Climbing Oakland Center
06:52PM 36.1353 -120.4903 141° Southeast 434 499 34,600 840 Climbing Oakland Center
06:53PM 36.0442 -120.3931 139° Southeast 431 496 35,000 120 Climbing Oakland Center
06:54PM 35.9339 -120.2767 139° Southeast 432 497 34,900  Descending Oakland Center
06:55PM 35.8419 -120.1819 140° Southeast 428 493 35,000  Climbing Oakland Center
06:56PM 35.7508 -120.0861 140° Southeast 428 493 35,000  Level Oakland Center
06:57PM 35.6578 -119.9894 140° Southeast 431 496 35,000  Level Oakland Center
06:58PM 35.5617 -119.9011 143° Southeast 430 495 35,000  Level Oakland Center
06:59PM 35.4622 -119.8178 146° Southeast 429 494 35,000  Level Oakland Center
07:00PM 35.3639 -119.7325 145° Southeast 431 496 35,000  Level Oakland Center
07:01PM 35.2650 -119.6494 146° Southeast 431 496 35,000  Level Oakland Center
07:02PM 35.1650 -119.5650 145° Southeast 434 499 35,000 -300 Level Oakland Center
07:04PM 35.0492 -119.4636 144° Southeast 433 498 34,400 -1,920 Descending Los Angeles Center
07:05PM 34.9303 -119.3628 145° Southeast 434 499 30,700 -3,180 Descending Los Angeles Center
07:06PM 34.8303 -119.2786 145° Southeast 435 501 27,900 -2,280 Descending Los Angeles Center
07:07PM 34.7528 -119.2125 145° Southeast 430 495 26,100 -2,220 Descending Los Angeles Center
07:08PM 34.6406 -119.1178 145° Southeast 414 476 23,400 -2,400 Descending Los Angeles Center
07:09PM 34.5478 -119.0442 147° Southeast 399 459 21,100 -2,460 Descending Los Angeles Center
07:10PM 34.4339 -118.9747 153° Southeast 379 436 18,400 -2,460 Descending Los Angeles Center
07:11PM 34.3419 -118.9197 154° Southeast 367 422 16,100 -2,040 Descending Los Angeles Center
07:12PM 34.2564 -118.8661 153° Southeast 346 398 14,200 -2,040 Descending Los Angeles Center
07:13PM 34.1747 -118.8178 154° Southeast 328 377 12,000 -2,040 Descending Los Angeles Center
07:14PM 34.1061 -118.7492 140° Southeast 326 375 10,000 -960 Descending Los Angeles Center
07:15PM 34.0578 -118.6344 117° Southeast 322 371 10,000 -720 Level Los Angeles Center
07:16PM 34.0325 -118.5389 108° East 301 346 8,500 -1,380 Descending Los Angeles Center
07:17PM 34.0108 -118.4586 108° East 297 342 7,200 -840 Descending Los Angeles Center
07:18PM 34.0286 -118.3489 79° East 285 328 6,800 -720 Descending Los Angeles Center
07:19PM 34.0408 -118.2658 80° East 259 298 5,700 -1,260 Descending Los Angeles Center
07:20PM 34.0411 -118.1836 90° East 248 285 4,200 -1,260 Descending Los Angeles Center
07:21PM 34.0031 -118.1314 131° Southeast 241 277 3,200 -900 Descending Los Angeles Center
07:22PM 33.9742 -118.1808 235° Southwest 202 232 2,400 -540 Descending Los Angeles Center
07:23PM 33.9692 -118.2400 264° West 189 217 2,200 -420 Descending Los Angeles Center
07:24PM 33.9617 -118.3097 263° West 181 208 1,600 -660 Descending Los Angeles Center
07:25PM 33.9578 -118.3553 264° West 155 178 900 -720 Descending Los Angeles Center
07:26PM 33.9531 -118.3986 263° West 139 160 200 -720 Descending Los Angeles Center
07:28PM 33.9333 -118.4000 228° Southwest  Level FlightAware Approximate
07:35PM 33.9425 -118.4081 228° Southwest  Level Estimated